sensor_id;sensor_type;location;lat;lon;timestamp;pressure;altitude;pressure_sealevel;temperature;humidity
12594;BME280;6362;50.208;9.182;2023-08-20T00:00:05;100197.31;;;22.24;100.00
12594;BME280;6362;50.208;9.182;2023-08-20T00:02:33;100194.66;;;22.24;100.00
12594;BME280;6362;50.208;9.182;2023-08-20T00:05:01;100194.56;;;22.25;100.00
12594;BME280;6362;50.208;9.182;2023-08-20T00:07:30;100191.47;;;22.17;100.00
12594;BME280;6362;50.208;9.182;2023-08-20T00:09:55;100184.47;;;22.16;100.00
12594;BME280;6362;50.208;9.182;2023-08-20T00:12:21;100190.00;;;22.11;100.00
12594;BME280;6362;50.208;9.182;2023-08-20T00:15:01;100195.28;;;22.11;100.00
12594;BME280;6362;50.208;9.182;2023-08-20T00:17:32;100203.56;;;22.04;100.00
12594;BME280;6362;50.208;9.182;2023-08-20T00:19:58;100201.81;;;22.04;100.00
12594;BME280;6362;50.208;9.182;2023-08-20T00:22:24;100199.38;;;22.00;100.00
12594;BME280;6362;50.208;9.182;2023-08-20T00:24:53;100196.03;;;21.96;100.00
12594;BME280;6362;50.208;9.182;2023-08-20T00:27:20;100196.97;;;21.95;100.00
12594;BME280;6362;50.208;9.182;2023-08-20T00:29:45;100188.94;;;21.97;100.00
12594;BME280;6362;50.208;9.182;2023-08-20T00:32:11;100192.53;;;21.96;100.00
12594;BME280;6362;50.208;9.182;2023-08-20T00:34:36;100188.94;;;21.97;100.00
12594;BME280;6362;50.208;9.182;2023-08-20T00:37:02;100192.97;;;22.04;100.00
12594;BME280;6362;50.208;9.182;2023-08-20T00:39:28;100196.66;;;22.01;100.00
12594;BME280;6362;50.208;9.182;2023-08-20T00:41:54;100193.56;;;21.93;100.00
12594;BME280;6362;50.208;9.182;2023-08-20T00:44:20;100191.13;;;21.88;100.00
12594;BME280;6362;50.208;9.182;2023-08-20T00:46:45;100196.44;;;21.88;100.00
12594;BME280;6362;50.208;9.182;2023-08-20T00:49:11;100190.19;;;21.90;100.00
12594;BME280;6362;50.208;9.182;2023-08-20T00:51:37;100195.03;;;21.99;100.00
12594;BME280;6362;50.208;9.182;2023-08-20T00:54:03;100196.50;;;22.04;100.00
12594;BME280;6362;50.208;9.182;2023-08-20T00:56:29;100187.53;;;22.07;100.00
12594;BME280;6362;50.208;9.182;2023-08-20T00:58:55;100189.25;;;22.08;100.00
12594;BME280;6362;50.208;9.182;2023-08-20T01:01:21;100192.13;;;22.03;100.00
12594;BME280;6362;50.208;9.182;2023-08-20T01:03:47;100196.25;;;22.09;100.00
12594;BME280;6362;50.208;9.182;2023-08-20T01:09:10;100199.09;;;22.06;100.00
12594;BME280;6362;50.208;9.182;2023-08-20T01:11:45;100196.91;;;22.14;99.77
12594;BME280;6362;50.208;9.182;2023-08-20T01:14:15;100200.94;;;22.04;100.00
12594;BME280;6362;50.208;9.182;2023-08-20T01:16:42;100204.75;;;21.98;100.00
12594;BME280;6362;50.208;9.182;2023-08-20T01:19:11;100199.38;;;22.00;100.00
12594;BME280;6362;50.208;9.182;2023-08-20T01:30:10;100201.34;;;22.13;100.00
12594;BME280;6362;50.208;9.182;2023-08-20T01:32:38;100204.19;;;22.10;100.00
12594;BME280;6362;50.208;9.182;2023-08-20T01:35:11;100204.38;;;22.06;100.00
12594;BME280;6362;50.208;9.182;2023-08-20T01:37:36;100201.72;;;22.06;100.00
12594;BME280;6362;50.208;9.182;2023-08-20T01:40:02;100203.53;;;22.05;100.00
12594;BME280;6362;50.208;9.182;2023-08-20T01:42:29;100208.81;;;22.05;100.00
12594;BME280;6362;50.208;9.182;2023-08-20T01:44:54;100213.31;;;22.03;100.00
12594;BME280;6362;50.208;9.182;2023-08-20T01:47:20;100209.19;;;21.98;100.00
12594;BME280;6362;50.208;9.182;2023-08-20T01:49:45;100213.00;;;21.92;100.00
12594;BME280;6362;50.208;9.182;2023-08-20T01:52:10;100208.88;;;21.86;100.00
12594;BME280;6362;50.208;9.182;2023-08-20T01:54:36;100196.00;;;21.79;100.00
12594;BME280;6362;50.208;9.182;2023-08-20T01:57:01;100210.41;;;21.73;100.00
12594;BME280;6362;50.208;9.182;2023-08-20T01:59:27;100207.13;;;21.68;100.00
12594;BME280;6362;50.208;9.182;2023-08-20T02:01:53;100208.22;;;21.64;100.00
12594;BME280;6362;50.208;9.182;2023-08-20T02:04:18;100212.94;;;21.57;100.00
12594;BME280;6362;50.208;9.182;2023-08-20T02:06:43;100198.31;;;21.50;100.00
12594;BME280;6362;50.208;9.182;2023-08-20T02:09:09;100206.16;;;21.52;100.00
12594;BME280;6362;50.208;9.182;2023-08-20T02:11:34;100196.66;;;21.48;100.00
12594;BME280;6362;50.208;9.182;2023-08-20T02:14:02;100195.97;;;21.44;100.00
12594;BME280;6362;50.208;9.182;2023-08-20T02:16:27;100191.19;;;21.33;100.00
12594;BME280;6362;50.208;9.182;2023-08-20T02:18:53;100196.94;;;21.23;100.00
12594;BME280;6362;50.208;9.182;2023-08-20T02:21:18;100193.28;;;21.25;100.00
12594;BME280;6362;50.208;9.182;2023-08-20T02:23:44;100197.81;;;21.23;100.00
12594;BME280;6362;50.208;9.182;2023-08-20T02:26:09;100202.16;;;21.24;100.00
12594;BME280;6362;50.208;9.182;2023-08-20T02:28:35;100201.09;;;21.28;100.00
12594;BME280;6362;50.208;9.182;2023-08-20T02:31:04;100197.59;;;21.28;100.00
12594;BME280;6362;50.208;9.182;2023-08-20T02:33:30;100195.00;;;21.26;100.00
12594;BME280;6362;50.208;9.182;2023-08-20T02:35:55;100194.91;;;21.29;100.00
12594;BME280;6362;50.208;9.182;2023-08-20T02:38:25;100193.09;;;21.30;100.00
12594;BME280;6362;50.208;9.182;2023-08-20T02:40:51;100188.53;;;21.33;100.00
12594;BME280;6362;50.208;9.182;2023-08-20T02:43:16;100193.75;;;21.35;100.00
12594;BME280;6362;50.208;9.182;2023-08-20T02:45:42;100193.28;;;21.25;100.00
12594;BME280;6362;50.208;9.182;2023-08-20T02:48:08;100181.00;;;21.24;100.00
12594;BME280;6362;50.208;9.182;2023-08-20T02:50:34;100185.50;;;21.22;100.00
12594;BME280;6362;50.208;9.182;2023-08-20T02:52:59;100181.94;;;21.23;100.00
12594;BME280;6362;50.208;9.182;2023-08-20T02:55:25;100178.34;;;21.24;100.00
12594;BME280;6362;50.208;9.182;2023-08-20T02:57:50;100189.00;;;21.23;100.00
12594;BME280;6362;50.208;9.182;2023-08-20T03:00:15;100186.38;;;21.23;100.00
12594;BME280;6362;50.208;9.182;2023-08-20T03:02:41;100189.13;;;21.20;100.00
12594;BME280;6362;50.208;9.182;2023-08-20T03:05:08;100193.66;;;21.18;100.00
12594;BME280;6362;50.208;9.182;2023-08-20T03:07:34;100192.16;;;21.12;100.00
12594;BME280;6362;50.208;9.182;2023-08-20T03:10:00;100191.59;;;21.05;100.00
12594;BME280;6362;50.208;9.182;2023-08-20T03:12:25;100190.78;;;21.03;100.00
12594;BME280;6362;50.208;9.182;2023-08-20T03:14:50;100188.31;;;21.00;100.00
12594;BME280;6362;50.208;9.182;2023-08-20T03:17:16;100185.56;;;21.02;100.00
12594;BME280;6362;50.208;9.182;2023-08-20T03:19:54;100188.09;;;21.05;100.00
12594;BME280;6362;50.208;9.182;2023-08-20T03:22:22;100185.44;;;21.05;100.00
12594;BME280;6362;50.208;9.182;2023-08-20T03:24:47;100183.66;;;21.05;100.00
12594;BME280;6362;50.208;9.182;2023-08-20T03:27:12;100188.88;;;21.07;100.00
12594;BME280;6362;50.208;9.182;2023-08-20T03:29:38;100190.66;;;21.06;100.00
12594;BME280;6362;50.208;9.182;2023-08-20T03:32:04;100181.06;;;21.04;100.00
12594;BME280;6362;50.208;9.182;2023-08-20T03:34:29;100185.56;;;21.02;100.00
12594;BME280;6362;50.208;9.182;2023-08-20T03:36:55;100186.59;;;20.99;100.00
12594;BME280;6362;50.208;9.182;2023-08-20T03:39:20;100190.88;;;21.02;100.00
12594;BME280;6362;50.208;9.182;2023-08-20T03:41:46;100190.09;;;21.00;100.00
12594;BME280;6362;50.208;9.182;2023-08-20T03:44:11;100189.38;;;20.96;100.00
12594;BME280;6362;50.208;9.182;2023-08-20T03:46:36;100184.06;;;20.96;100.00
12594;BME280;6362;50.208;9.182;2023-08-20T03:49:02;100185.75;;;20.99;100.00
12594;BME280;6362;50.208;9.182;2023-08-20T03:51:28;100184.63;;;21.03;100.00
12594;BME280;6362;50.208;9.182;2023-08-20T03:53:53;100188.31;;;21.00;100.00
12594;BME280;6362;50.208;9.182;2023-08-20T03:56:19;100189.38;;;20.96;100.00
12594;BME280;6362;50.208;9.182;2023-08-20T03:58:45;100192.94;;;20.95;100.00
12594;BME280;6362;50.208;9.182;2023-08-20T04:01:11;100196.94;;;20.85;100.00
12594;BME280;6362;50.208;9.182;2023-08-20T04:03:36;100202.50;;;20.79;100.00
12594;BME280;6362;50.208;9.182;2023-08-20T04:06:02;100203.91;;;20.67;100.00
12594;BME280;6362;50.208;9.182;2023-08-20T04:08:29;100198.19;;;20.58;100.00
12594;BME280;6362;50.208;9.182;2023-08-20T04:10:54;100208.91;;;20.54;100.00
12594;BME280;6362;50.208;9.182;2023-08-20T04:13:20;100202.88;;;20.51;100.00
12594;BME280;6362;50.208;9.182;2023-08-20T04:15:45;100204.47;;;20.55;100.00
12594;BME280;6362;50.208;9.182;2023-08-20T04:18:11;100200.97;;;20.54;100.00
12594;BME280;6362;50.208;9.182;2023-08-20T04:20:36;100205.91;;;20.62;100.00
12594;BME280;6362;50.208;9.182;2023-08-20T04:23:02;100214.56;;;20.66;100.00
12594;BME280;6362;50.208;9.182;2023-08-20T04:25:27;100207.16;;;20.53;100.00
12594;BME280;6362;50.208;9.182;2023-08-20T04:27:52;100209.13;;;20.48;100.00
12594;BME280;6362;50.208;9.182;2023-08-20T04:30:18;100214.38;;;20.50;100.00
12594;BME280;6362;50.208;9.182;2023-08-20T04:32:43;100218.94;;;20.46;100.00
12594;BME280;6362;50.208;9.182;2023-08-20T04:35:09;100225.91;;;20.47;100.00
12594;BME280;6362;50.208;9.182;2023-08-20T04:37:35;100230.34;;;20.47;100.00
12594;BME280;6362;50.208;9.182;2023-08-20T04:40:01;100230.22;;;20.50;100.00
12594;BME280;6362;50.208;9.182;2023-08-20T04:42:27;100238.00;;;20.53;100.00
12594;BME280;6362;50.208;9.182;2023-08-20T04:44:52;100236.75;;;20.62;100.00
12594;BME280;6362;50.208;9.182;2023-08-20T04:47:18;100241.69;;;20.69;100.00
12594;BME280;6362;50.208;9.182;2023-08-20T04:49:43;100248.38;;;20.78;100.00
12594;BME280;6362;50.208;9.182;2023-08-20T04:52:09;100243.75;;;20.83;100.00
12594;BME280;6362;50.208;9.182;2023-08-20T04:54:34;100245.25;;;20.89;100.00
12594;BME280;6362;50.208;9.182;2023-08-20T04:57:00;100250.75;;;20.84;100.00
12594;BME280;6362;50.208;9.182;2023-08-20T04:59:25;100257.00;;;20.81;100.00
12594;BME280;6362;50.208;9.182;2023-08-20T05:01:51;100255.28;;;20.80;100.00
12594;BME280;6362;50.208;9.182;2023-08-20T05:04:17;100255.28;;;20.80;100.00
12594;BME280;6362;50.208;9.182;2023-08-20T05:06:42;100264.94;;;20.81;100.00
12594;BME280;6362;50.208;9.182;2023-08-20T05:09:07;100266.81;;;20.79;100.00
12594;BME280;6362;50.208;9.182;2023-08-20T05:11:33;100264.94;;;20.81;100.00
12594;BME280;6362;50.208;9.182;2023-08-20T05:13:59;100257.09;;;20.80;100.00
12594;BME280;6362;50.208;9.182;2023-08-20T05:16:24;100256.09;;;20.82;100.00
12594;BME280;6362;50.208;9.182;2023-08-20T05:18:49;100254.13;;;20.88;100.00
12594;BME280;6362;50.208;9.182;2023-08-20T05:21:15;100252.91;;;20.95;100.00
12594;BME280;6362;50.208;9.182;2023-08-20T05:23:40;100254.41;;;21.00;100.00
12594;BME280;6362;50.208;9.182;2023-08-20T05:26:06;100252.53;;;21.02;100.00
12594;BME280;6362;50.208;9.182;2023-08-20T05:28:33;100253.59;;;20.98;100.00
12594;BME280;6362;50.208;9.182;2023-08-20T05:30:58;100257.66;;;20.87;100.00
12594;BME280;6362;50.208;9.182;2023-08-20T05:33:24;100266.53;;;20.86;100.00
12594;BME280;6362;50.208;9.182;2023-08-20T05:35:50;100266.81;;;20.79;100.00
12594;BME280;6362;50.208;9.182;2023-08-20T05:38:16;100271.97;;;20.82;100.00
12594;BME280;6362;50.208;9.182;2023-08-20T05:40:42;100269.16;;;20.86;100.00
12594;BME280;6362;50.208;9.182;2023-08-20T05:43:07;100267.97;;;20.93;100.00
12594;BME280;6362;50.208;9.182;2023-08-20T05:45:33;100281.06;;;20.96;100.00
12594;BME280;6362;50.208;9.182;2023-08-20T05:47:59;100274.28;;;21.09;100.00
12594;BME280;6362;50.208;9.182;2023-08-20T05:50:24;100277.25;;;21.22;100.00
12594;BME280;6362;50.208;9.182;2023-08-20T05:52:50;100286.88;;;21.23;100.00
12594;BME280;6362;50.208;9.182;2023-08-20T05:55:15;100286.22;;;21.38;100.00
12594;BME280;6362;50.208;9.182;2023-08-20T05:57:41;100273.41;;;21.48;100.00
12594;BME280;6362;50.208;9.182;2023-08-20T06:00:08;100268.63;;;21.56;99.61
12594;BME280;6362;50.208;9.182;2023-08-20T06:02:34;100273.66;;;21.79;98.70
12594;BME280;6362;50.208;9.182;2023-08-20T06:04:59;100273.78;;;21.95;96.20
12594;BME280;6362;50.208;9.182;2023-08-20T06:07:25;100279.59;;;22.21;93.71
12594;BME280;6362;50.208;9.182;2023-08-20T06:09:50;100284.66;;;22.43;92.93
12594;BME280;6362;50.208;9.182;2023-08-20T06:12:18;100275.53;;;22.48;92.04
12594;BME280;6362;50.208;9.182;2023-08-20T06:14:45;100283.34;;;22.69;90.75
12594;BME280;6362;50.208;9.182;2023-08-20T06:17:10;100277.78;;;22.73;89.98
12594;BME280;6362;50.208;9.182;2023-08-20T06:19:35;100275.34;;;22.86;89.20
12594;BME280;6362;50.208;9.182;2023-08-20T06:22:01;100281.78;;;22.99;88.94
12594;BME280;6362;50.208;9.182;2023-08-20T06:24:26;100291.63;;;23.13;88.39
12594;BME280;6362;50.208;9.182;2023-08-20T06:26:52;100308.34;;;23.31;86.95
12594;BME280;6362;50.208;9.182;2023-08-20T06:29:18;100305.28;;;23.38;86.45
12594;BME280;6362;50.208;9.182;2023-08-20T06:31:43;100301.44;;;23.44;86.69
12594;BME280;6362;50.208;9.182;2023-08-20T06:34:09;100292.19;;;23.51;84.78
12594;BME280;6362;50.208;9.182;2023-08-20T06:36:35;100302.72;;;23.53;85.51
12594;BME280;6362;50.208;9.182;2023-08-20T06:39:00;100302.38;;;23.59;85.11
12594;BME280;6362;50.208;9.182;2023-08-20T06:41:26;100306.63;;;23.79;83.62
12594;BME280;6362;50.208;9.182;2023-08-20T06:43:51;100309.78;;;23.85;82.99
12594;BME280;6362;50.208;9.182;2023-08-20T06:46:16;100310.38;;;23.90;82.36
12594;BME280;6362;50.208;9.182;2023-08-20T06:48:42;100313.75;;;23.94;82.59
12594;BME280;6362;50.208;9.182;2023-08-20T06:51:14;100318.44;;;24.05;81.40
12594;BME280;6362;50.208;9.182;2023-08-20T06:53:41;100320.13;;;24.21;80.41
12594;BME280;6362;50.208;9.182;2023-08-20T06:56:10;100322.09;;;24.18;80.75
12594;BME280;6362;50.208;9.182;2023-08-20T06:58:37;100317.88;;;24.30;80.54
12594;BME280;6362;50.208;9.182;2023-08-20T07:01:03;100324.56;;;24.37;80.15
12594;BME280;6362;50.208;9.182;2023-08-20T07:03:38;100316.41;;;24.40;80.05
12594;BME280;6362;50.208;9.182;2023-08-20T07:08:43;100320.78;;;24.71;76.55
12594;BME280;6362;50.208;9.182;2023-08-20T07:11:09;100326.75;;;24.60;76.94
12594;BME280;6362;50.208;9.182;2023-08-20T07:13:34;100336.16;;;24.66;76.86
12594;BME280;6362;50.208;9.182;2023-08-20T07:16:00;100333.03;;;24.73;77.23
12594;BME280;6362;50.208;9.182;2023-08-20T07:18:25;100337.41;;;24.74;76.65
12594;BME280;6362;50.208;9.182;2023-08-20T07:20:51;100336.38;;;24.77;75.91
12594;BME280;6362;50.208;9.182;2023-08-20T07:23:19;100339.22;;;24.74;76.49
12594;BME280;6362;50.208;9.182;2023-08-20T07:25:45;100338.25;;;24.75;76.71
12594;BME280;6362;50.208;9.182;2023-08-20T07:28:12;100341.34;;;24.83;77.20
12594;BME280;6362;50.208;9.182;2023-08-20T07:30:37;100342.09;;;24.85;75.96
12594;BME280;6362;50.208;9.182;2023-08-20T07:33:04;100343.53;;;24.91;75.98
12594;BME280;6362;50.208;9.182;2023-08-20T07:35:29;100345.91;;;24.95;76.39
12594;BME280;6362;50.208;9.182;2023-08-20T07:37:55;100338.88;;;24.94;74.77
12594;BME280;6362;50.208;9.182;2023-08-20T07:40:20;100342.41;;;25.09;75.31
12594;BME280;6362;50.208;9.182;2023-08-20T07:42:45;100340.34;;;25.14;75.20
12594;BME280;6362;50.208;9.182;2023-08-20T07:45:11;100338.91;;;25.09;74.55
12594;BME280;6362;50.208;9.182;2023-08-20T07:47:37;100340.53;;;25.11;74.13
12594;BME280;6362;50.208;9.182;2023-08-20T07:50:03;100337.69;;;25.14;73.14
12594;BME280;6362;50.208;9.182;2023-08-20T07:52:30;100345.66;;;25.14;73.10
12594;BME280;6362;50.208;9.182;2023-08-20T07:54:55;100341.75;;;25.20;73.30
12594;BME280;6362;50.208;9.182;2023-08-20T07:57:21;100333.59;;;25.23;73.36
12594;BME280;6362;50.208;9.182;2023-08-20T07:59:48;100339.00;;;25.36;72.72
12594;BME280;6362;50.208;9.182;2023-08-20T08:02:14;100338.72;;;25.40;72.90
12594;BME280;6362;50.208;9.182;2023-08-20T08:04:39;100334.34;;;25.53;71.80
12594;BME280;6362;50.208;9.182;2023-08-20T08:07:05;100327.88;;;25.58;72.17
12594;BME280;6362;50.208;9.182;2023-08-20T08:09:31;100331.00;;;25.64;73.22
12594;BME280;6362;50.208;9.182;2023-08-20T08:11:58;100336.59;;;25.88;71.94
12594;BME280;6362;50.208;9.182;2023-08-20T08:14:24;100344.13;;;26.09;70.78
12594;BME280;6362;50.208;9.182;2023-08-20T08:16:49;100346.38;;;26.29;70.66
12594;BME280;6362;50.208;9.182;2023-08-20T08:19:16;100342.41;;;26.22;69.05
12594;BME280;6362;50.208;9.182;2023-08-20T08:21:42;100353.47;;;26.43;69.09
12594;BME280;6362;50.208;9.182;2023-08-20T08:24:08;100356.72;;;26.61;69.04
12594;BME280;6362;50.208;9.182;2023-08-20T08:26:34;100361.78;;;26.78;68.80
12594;BME280;6362;50.208;9.182;2023-08-20T08:29:03;100357.41;;;27.02;68.52
12594;BME280;6362;50.208;9.182;2023-08-20T08:31:29;100352.75;;;27.19;65.15
12594;BME280;6362;50.208;9.182;2023-08-20T08:33:54;100348.03;;;27.35;65.15
12594;BME280;6362;50.208;9.182;2023-08-20T08:36:20;100347.22;;;27.22;64.46
12594;BME280;6362;50.208;9.182;2023-08-20T08:38:45;100337.59;;;27.06;64.88
12594;BME280;6362;50.208;9.182;2023-08-20T08:41:12;100334.03;;;27.31;66.14
12594;BME280;6362;50.208;9.182;2023-08-20T08:43:39;100331.66;;;27.52;67.38
12594;BME280;6362;50.208;9.182;2023-08-20T08:46:14;100328.78;;;27.55;66.19
12594;BME280;6362;50.208;9.182;2023-08-20T08:48:44;100327.72;;;27.95;62.54
12594;BME280;6362;50.208;9.182;2023-08-20T08:51:11;100331.59;;;28.14;62.51
12594;BME280;6362;50.208;9.182;2023-08-20T08:53:37;100334.31;;;28.26;60.86
12594;BME280;6362;50.208;9.182;2023-08-20T08:56:03;100331.75;;;28.24;61.30
12594;BME280;6362;50.208;9.182;2023-08-20T08:58:31;100331.88;;;28.23;62.00
12594;BME280;6362;50.208;9.182;2023-08-20T09:00:57;100334.19;;;28.40;62.71
12594;BME280;6362;50.208;9.182;2023-08-20T09:03:23;100333.66;;;28.70;60.35
12594;BME280;6362;50.208;9.182;2023-08-20T09:05:53;100332.31;;;29.00;59.89
12594;BME280;6362;50.208;9.182;2023-08-20T09:08:26;100334.25;;;29.31;59.33
12594;BME280;6362;50.208;9.182;2023-08-20T09:10:53;100328.81;;;29.55;59.51
12594;BME280;6362;50.208;9.182;2023-08-20T09:13:24;100331.94;;;29.83;59.25
12594;BME280;6362;50.208;9.182;2023-08-20T09:15:53;100335.06;;;29.99;59.68
12594;BME280;6362;50.208;9.182;2023-08-20T09:18:19;100332.97;;;30.03;58.62
12594;BME280;6362;50.208;9.182;2023-08-20T09:20:48;100331.03;;;30.16;57.62
12594;BME280;6362;50.208;9.182;2023-08-20T09:23:15;100338.59;;;30.43;56.76
12594;BME280;6362;50.208;9.182;2023-08-20T09:25:41;100333.34;;;30.41;54.61
12594;BME280;6362;50.208;9.182;2023-08-20T09:28:07;100327.13;;;30.41;55.59
12594;BME280;6362;50.208;9.182;2023-08-20T09:30:33;100335.53;;;30.68;57.38
12594;BME280;6362;50.208;9.182;2023-08-20T09:33:06;100338.91;;;30.82;56.99
12594;BME280;6362;50.208;9.182;2023-08-20T09:35:32;100334.84;;;30.87;55.38
12594;BME280;6362;50.208;9.182;2023-08-20T09:38:04;100331.81;;;31.01;54.40
12594;BME280;6362;50.208;9.182;2023-08-20T09:40:30;100339.94;;;31.32;54.53
12594;BME280;6362;50.208;9.182;2023-08-20T09:42:56;100334.91;;;31.58;55.04
12594;BME280;6362;50.208;9.182;2023-08-20T09:45:28;100331.78;;;31.84;51.34
12594;BME280;6362;50.208;9.182;2023-08-20T09:47:55;100330.28;;;31.60;52.51
12594;BME280;6362;50.208;9.182;2023-08-20T09:50:22;100329.72;;;31.76;51.53
12594;BME280;6362;50.208;9.182;2023-08-20T09:52:57;100325.19;;;31.67;52.77
12594;BME280;6362;50.208;9.182;2023-08-20T09:55:23;100321.06;;;31.63;53.69
12594;BME280;6362;50.208;9.182;2023-08-20T09:57:53;100320.75;;;32.06;50.53
12594;BME280;6362;50.208;9.182;2023-08-20T10:00:19;100320.91;;;32.04;50.19
12594;BME280;6362;50.208;9.182;2023-08-20T10:02:46;100318.19;;;32.14;52.46
12594;BME280;6362;50.208;9.182;2023-08-20T10:05:13;100322.75;;;32.33;48.82
12594;BME280;6362;50.208;9.182;2023-08-20T10:07:42;100321.47;;;32.27;48.60
12594;BME280;6362;50.208;9.182;2023-08-20T10:10:09;100315.94;;;32.29;49.61
12594;BME280;6362;50.208;9.182;2023-08-20T10:12:39;100320.78;;;32.35;51.42
12594;BME280;6362;50.208;9.182;2023-08-20T10:15:06;100320.09;;;32.43;50.45
12594;BME280;6362;50.208;9.182;2023-08-20T10:17:33;100313.56;;;32.55;48.93
12594;BME280;6362;50.208;9.182;2023-08-20T10:19:59;100312.41;;;32.67;49.56
12594;BME280;6362;50.208;9.182;2023-08-20T10:22:52;100312.78;;;32.92;47.23
12594;BME280;6362;50.208;9.182;2023-08-20T10:25:24;100309.31;;;33.09;47.79
12594;BME280;6362;50.208;9.182;2023-08-20T10:27:51;100314.69;;;33.19;48.23
12594;BME280;6362;50.208;9.182;2023-08-20T10:30:25;100314.31;;;33.51;46.91
12594;BME280;6362;50.208;9.182;2023-08-20T10:32:53;100310.91;;;33.76;48.37
12594;BME280;6362;50.208;9.182;2023-08-20T10:35:46;100320.16;;;33.92;48.67
12594;BME280;6362;50.208;9.182;2023-08-20T10:38:16;100314.41;;;34.40;44.10
12594;BME280;6362;50.208;9.182;2023-08-20T10:40:49;100309.53;;;34.26;43.54
12594;BME280;6362;50.208;9.182;2023-08-20T10:43:39;100308.97;;;33.86;45.92
12594;BME280;6362;50.208;9.182;2023-08-20T10:46:08;100310.31;;;34.00;45.51
12594;BME280;6362;50.208;9.182;2023-08-20T10:48:36;100306.00;;;34.25;43.72
12594;BME280;6362;50.208;9.182;2023-08-20T10:53:33;100304.38;;;34.32;42.64
12594;BME280;6362;50.208;9.182;2023-08-20T10:59:07;100307.31;;;34.39;43.85
12594;BME280;6362;50.208;9.182;2023-08-20T11:01:34;100303.19;;;34.71;43.36
12594;BME280;6362;50.208;9.182;2023-08-20T11:04:00;100300.63;;;34.69;43.65
12594;BME280;6362;50.208;9.182;2023-08-20T11:06:31;100302.56;;;34.77;42.34
12594;BME280;6362;50.208;9.182;2023-08-20T11:09:00;100305.00;;;34.88;42.63
12594;BME280;6362;50.208;9.182;2023-08-20T11:11:29;100299.44;;;35.15;42.25
12594;BME280;6362;50.208;9.182;2023-08-20T11:13:54;100302.41;;;35.38;42.52
12594;BME280;6362;50.208;9.182;2023-08-20T11:16:20;100300.84;;;35.62;40.54
12594;BME280;6362;50.208;9.182;2023-08-20T11:18:45;100301.16;;;35.59;41.52
12594;BME280;6362;50.208;9.182;2023-08-20T11:21:12;100294.44;;;35.79;39.73
12594;BME280;6362;50.208;9.182;2023-08-20T11:23:38;100292.16;;;36.01;38.82
12594;BME280;6362;50.208;9.182;2023-08-20T11:26:05;100293.03;;;36.09;38.96
12594;BME280;6362;50.208;9.182;2023-08-20T11:28:30;100295.53;;;36.03;38.33
12594;BME280;6362;50.208;9.182;2023-08-20T11:30:56;100298.13;;;35.62;40.21
12594;BME280;6362;50.208;9.182;2023-08-20T11:33:23;100291.69;;;35.55;38.81
12594;BME280;6362;50.208;9.182;2023-08-20T11:35:49;100289.41;;;35.92;40.45
12594;BME280;6362;50.208;9.182;2023-08-20T11:38:15;100298.94;;;36.13;36.61
12594;BME280;6362;50.208;9.182;2023-08-20T11:40:40;100289.81;;;36.22;36.63
12594;BME280;6362;50.208;9.182;2023-08-20T11:43:06;100286.56;;;36.02;38.21
12594;BME280;6362;50.208;9.182;2023-08-20T11:45:33;100292.72;;;35.62;36.67
12594;BME280;6362;50.208;9.182;2023-08-20T11:47:58;100289.28;;;35.43;37.72
12594;BME280;6362;50.208;9.182;2023-08-20T11:50:24;100289.84;;;35.29;38.87
12594;BME280;6362;50.208;9.182;2023-08-20T11:52:52;100287.13;;;35.63;37.81
12594;BME280;6362;50.208;9.182;2023-08-20T11:55:26;100287.88;;;35.82;37.41
12594;BME280;6362;50.208;9.182;2023-08-20T11:57:52;100293.50;;;35.96;39.26
12594;BME280;6362;50.208;9.182;2023-08-20T12:00:25;100283.88;;;36.27;38.05
12594;BME280;6362;50.208;9.182;2023-08-20T12:02:55;100291.00;;;36.52;36.56
12594;BME280;6362;50.208;9.182;2023-08-20T12:05:28;100285.72;;;36.91;37.94
12594;BME280;6362;50.208;9.182;2023-08-20T12:07:58;100290.38;;;37.22;39.26
12594;BME280;6362;50.208;9.182;2023-08-20T12:10:25;100272.75;;;37.57;34.33
12594;BME280;6362;50.208;9.182;2023-08-20T12:12:52;100284.03;;;37.77;35.49
12594;BME280;6362;50.208;9.182;2023-08-20T12:15:18;100275.34;;;37.50;34.63
12594;BME280;6362;50.208;9.182;2023-08-20T12:17:58;100278.47;;;37.70;33.97
12594;BME280;6362;50.208;9.182;2023-08-20T12:20:24;100269.81;;;37.67;34.63
12594;BME280;6362;50.208;9.182;2023-08-20T12:22:49;100269.78;;;37.44;35.42
12594;BME280;6362;50.208;9.182;2023-08-20T12:25:15;100270.75;;;37.51;36.18
12594;BME280;6362;50.208;9.182;2023-08-20T12:27:41;100274.13;;;37.53;34.43
12594;BME280;6362;50.208;9.182;2023-08-20T12:30:07;100277.56;;;37.78;33.81
12594;BME280;6362;50.208;9.182;2023-08-20T12:32:32;100266.50;;;37.88;33.87
12594;BME280;6362;50.208;9.182;2023-08-20T12:34:58;100262.88;;;37.95;33.23
12594;BME280;6362;50.208;9.182;2023-08-20T12:37:23;100270.09;;;38.03;35.51
12594;BME280;6362;50.208;9.182;2023-08-20T12:39:49;100271.09;;;38.33;33.36
12594;BME280;6362;50.208;9.182;2023-08-20T12:42:14;100260.69;;;38.14;32.34
12594;BME280;6362;50.208;9.182;2023-08-20T12:44:39;100260.03;;;38.12;30.92
12594;BME280;6362;50.208;9.182;2023-08-20T12:47:05;100269.69;;;37.60;32.04
12594;BME280;6362;50.208;9.182;2023-08-20T12:49:30;100261.22;;;37.86;33.59
12594;BME280;6362;50.208;9.182;2023-08-20T12:51:56;100251.16;;;38.18;31.06
12594;BME280;6362;50.208;9.182;2023-08-20T12:54:21;100252.53;;;38.14;32.35
12594;BME280;6362;50.208;9.182;2023-08-20T12:56:47;100256.22;;;38.21;31.88
12594;BME280;6362;50.208;9.182;2023-08-20T12:59:13;100251.59;;;38.29;31.22
12594;BME280;6362;50.208;9.182;2023-08-20T13:01:38;100254.59;;;38.35;31.87
12594;BME280;6362;50.208;9.182;2023-08-20T13:04:04;100254.25;;;38.15;30.65
12594;BME280;6362;50.208;9.182;2023-08-20T13:06:30;100252.19;;;38.17;31.25
12594;BME280;6362;50.208;9.182;2023-08-20T13:08:56;100252.94;;;38.48;29.56
12594;BME280;6362;50.208;9.182;2023-08-20T13:11:22;100249.28;;;38.56;31.15